sensor_id;sensor_type;location;lat;lon;timestamp;P1;durP1;ratioP1;P2;durP2;ratioP2
55931;SDS011;41837;55.700;37.984;2023-02-27T00:01:36;9.25;;;4.90;;
55931;SDS011;41837;55.700;37.984;2023-02-27T00:04:03;7.97;;;5.20;;
55931;SDS011;41837;55.700;37.984;2023-02-27T00:06:29;9.23;;;4.82;;
55931;SDS011;41837;55.700;37.984;2023-02-27T00:08:56;8.95;;;5.30;;
55931;SDS011;41837;55.700;37.984;2023-02-27T00:11:22;11.05;;;5.20;;
55931;SDS011;41837;55.700;37.984;2023-02-27T00:13:48;11.25;;;4.85;;
55931;SDS011;41837;55.700;37.984;2023-02-27T00:16:15;10.20;;;5.15;;
55931;SDS011;41837;55.700;37.984;2023-02-27T00:18:42;9.93;;;4.95;;
55931;SDS011;41837;55.700;37.984;2023-02-27T00:21:08;8.38;;;4.65;;
55931;SDS011;41837;55.700;37.984;2023-02-27T00:23:34;9.25;;;4.60;;
55931;SDS011;41837;55.700;37.984;2023-02-27T00:26:00;10.55;;;5.07;;
55931;SDS011;41837;55.700;37.984;2023-02-27T00:28:27;10.30;;;5.20;;
55931;SDS011;41837;55.700;37.984;2023-02-27T00:30:53;10.25;;;4.82;;
55931;SDS011;41837;55.700;37.984;2023-02-27T00:33:19;6.55;;;4.10;;
55931;SDS011;41837;55.700;37.984;2023-02-27T00:35:56;10.00;;;4.95;;
55931;SDS011;41837;55.700;37.984;2023-02-27T00:38:23;10.10;;;4.57;;
55931;SDS011;41837;55.700;37.984;2023-02-27T00:40:50;6.90;;;4.20;;
55931;SDS011;41837;55.700;37.984;2023-02-27T00:43:16;8.63;;;4.78;;
55931;SDS011;41837;55.700;37.984;2023-02-27T00:45:43;8.13;;;4.13;;
55931;SDS011;41837;55.700;37.984;2023-02-27T00:48:09;8.55;;;4.30;;
55931;SDS011;41837;55.700;37.984;2023-02-27T00:50:36;7.50;;;4.13;;
55931;SDS011;41837;55.700;37.984;2023-02-27T00:53:02;13.80;;;5.35;;
55931;SDS011;41837;55.700;37.984;2023-02-27T00:55:29;9.27;;;4.88;;
55931;SDS011;41837;55.700;37.984;2023-02-27T00:57:56;8.07;;;4.60;;
55931;SDS011;41837;55.700;37.984;2023-02-27T01:00:22;8.93;;;4.40;;
55931;SDS011;41837;55.700;37.984;2023-02-27T01:02:48;8.00;;;4.28;;
55931;SDS011;41837;55.700;37.984;2023-02-27T01:05:14;7.55;;;4.10;;
55931;SDS011;41837;55.700;37.984;2023-02-27T01:07:40;7.53;;;4.32;;
55931;SDS011;41837;55.700;37.984;2023-02-27T01:10:07;9.23;;;4.68;;
55931;SDS011;41837;55.700;37.984;2023-02-27T01:12:38;6.72;;;4.00;;
55931;SDS011;41837;55.700;37.984;2023-02-27T01:15:05;6.30;;;3.63;;
55931;SDS011;41837;55.700;37.984;2023-02-27T01:17:34;7.50;;;4.00;;
55931;SDS011;41837;55.700;37.984;2023-02-27T01:20:03;7.15;;;4.03;;
55931;SDS011;41837;55.700;37.984;2023-02-27T01:22:30;8.07;;;4.50;;
55931;SDS011;41837;55.700;37.984;2023-02-27T01:24:58;6.07;;;3.47;;
55931;SDS011;41837;55.700;37.984;2023-02-27T01:27:24;6.88;;;3.90;;
55931;SDS011;41837;55.700;37.984;2023-02-27T01:29:51;8.25;;;4.75;;
55931;SDS011;41837;55.700;37.984;2023-02-27T01:32:17;7.85;;;4.20;;
55931;SDS011;41837;55.700;37.984;2023-02-27T01:34:43;7.97;;;3.80;;
55931;SDS011;41837;55.700;37.984;2023-02-27T01:37:09;7.47;;;3.97;;
55931;SDS011;41837;55.700;37.984;2023-02-27T01:39:35;8.15;;;4.35;;
55931;SDS011;41837;55.700;37.984;2023-02-27T01:42:01;6.97;;;3.97;;
55931;SDS011;41837;55.700;37.984;2023-02-27T01:44:29;7.93;;;4.38;;
55931;SDS011;41837;55.700;37.984;2023-02-27T01:46:56;7.10;;;4.18;;
55931;SDS011;41837;55.700;37.984;2023-02-27T01:49:29;13.25;;;4.10;;
55931;SDS011;41837;55.700;37.984;2023-02-27T01:52:02;7.80;;;4.38;;
55931;SDS011;41837;55.700;37.984;2023-02-27T01:54:35;7.65;;;4.38;;
55931;SDS011;41837;55.700;37.984;2023-02-27T01:57:05;8.32;;;4.53;;
55931;SDS011;41837;55.700;37.984;2023-02-27T01:59:33;9.02;;;4.75;;
55931;SDS011;41837;55.700;37.984;2023-02-27T02:02:02;11.30;;;5.60;;
55931;SDS011;41837;55.700;37.984;2023-02-27T02:04:34;8.15;;;4.30;;
55931;SDS011;41837;55.700;37.984;2023-02-27T02:07:05;8.95;;;4.72;;
55931;SDS011;41837;55.700;37.984;2023-02-27T02:09:55;8.52;;;4.57;;
55931;SDS011;41837;55.700;37.984;2023-02-27T02:12:30;8.48;;;5.05;;
55931;SDS011;41837;55.700;37.984;2023-02-27T02:15:00;7.00;;;4.32;;
55931;SDS011;41837;55.700;37.984;2023-02-27T02:30:58;10.85;;;5.13;;
55931;SDS011;41837;55.700;37.984;2023-02-27T02:33:48;10.85;;;5.70;;
55931;SDS011;41837;55.700;37.984;2023-02-27T02:36:27;8.13;;;4.72;;
55931;SDS011;41837;55.700;37.984;2023-02-27T02:47:42;9.02;;;5.32;;
55931;SDS011;41837;55.700;37.984;2023-02-27T02:50:29;10.57;;;5.53;;
55931;SDS011;41837;55.700;37.984;2023-02-27T02:53:10;8.90;;;5.22;;
55931;SDS011;41837;55.700;37.984;2023-02-27T02:55:47;10.25;;;5.32;;
55931;SDS011;41837;55.700;37.984;2023-02-27T02:58:22;12.73;;;5.68;;
55931;SDS011;41837;55.700;37.984;2023-02-27T03:00:58;10.35;;;5.65;;
55931;SDS011;41837;55.700;37.984;2023-02-27T03:03:56;9.77;;;4.75;;
55931;SDS011;41837;55.700;37.984;2023-02-27T03:06:32;8.95;;;5.70;;
55931;SDS011;41837;55.700;37.984;2023-02-27T03:12:24;10.63;;;5.93;;
55931;SDS011;41837;55.700;37.984;2023-02-27T03:17:42;11.23;;;5.30;;
55931;SDS011;41837;55.700;37.984;2023-02-27T03:20:10;9.45;;;5.45;;
55931;SDS011;41837;55.700;37.984;2023-02-27T03:22:45;9.07;;;5.25;;
55931;SDS011;41837;55.700;37.984;2023-02-27T03:25:16;10.55;;;5.68;;
55931;SDS011;41837;55.700;37.984;2023-02-27T03:27:51;10.52;;;5.88;;
55931;SDS011;41837;55.700;37.984;2023-02-27T03:30:28;10.98;;;5.80;;
55931;SDS011;41837;55.700;37.984;2023-02-27T03:33:07;8.68;;;5.28;;
55931;SDS011;41837;55.700;37.984;2023-02-27T03:41:13;12.23;;;6.10;;
55931;SDS011;41837;55.700;37.984;2023-02-27T03:44:06;13.55;;;6.15;;
55931;SDS011;41837;55.700;37.984;2023-02-27T03:46:35;9.73;;;6.10;;
55931;SDS011;41837;55.700;37.984;2023-02-27T03:49:02;12.95;;;5.90;;
55931;SDS011;41837;55.700;37.984;2023-02-27T03:51:29;11.85;;;6.20;;
55931;SDS011;41837;55.700;37.984;2023-02-27T03:54:03;10.52;;;5.82;;
55931;SDS011;41837;55.700;37.984;2023-02-27T03:56:47;9.40;;;5.40;;
55931;SDS011;41837;55.700;37.984;2023-02-27T03:59:18;11.00;;;6.15;;
55931;SDS011;41837;55.700;37.984;2023-02-27T04:01:49;12.55;;;5.88;;
55931;SDS011;41837;55.700;37.984;2023-02-27T04:04:17;10.18;;;6.18;;
55931;SDS011;41837;55.700;37.984;2023-02-27T04:07:11;10.90;;;6.18;;
55931;SDS011;41837;55.700;37.984;2023-02-27T04:26:50;12.10;;;7.00;;
55931;SDS011;41837;55.700;37.984;2023-02-27T04:32:03;11.40;;;6.43;;
55931;SDS011;41837;55.700;37.984;2023-02-27T04:34:42;11.68;;;6.18;;
55931;SDS011;41837;55.700;37.984;2023-02-27T04:37:36;10.90;;;5.63;;
55931;SDS011;41837;55.700;37.984;2023-02-27T04:40:06;12.73;;;6.10;;
55931;SDS011;41837;55.700;37.984;2023-02-27T04:42:41;12.40;;;7.13;;
55931;SDS011;41837;55.700;37.984;2023-02-27T04:45:13;11.60;;;6.45;;
55931;SDS011;41837;55.700;37.984;2023-02-27T04:48:03;11.35;;;6.90;;
55931;SDS011;41837;55.700;37.984;2023-02-27T04:50:35;12.75;;;6.03;;
55931;SDS011;41837;55.700;37.984;2023-02-27T04:53:19;10.73;;;6.10;;
55931;SDS011;41837;55.700;37.984;2023-02-27T04:56:04;12.20;;;5.97;;
55931;SDS011;41837;55.700;37.984;2023-02-27T04:58:39;11.45;;;6.78;;
55931;SDS011;41837;55.700;37.984;2023-02-27T05:01:16;12.60;;;7.07;;
55931;SDS011;41837;55.700;37.984;2023-02-27T05:03:48;12.75;;;7.07;;
55931;SDS011;41837;55.700;37.984;2023-02-27T05:06:16;12.77;;;6.80;;
55931;SDS011;41837;55.700;37.984;2023-02-27T05:09:02;16.50;;;7.40;;
55931;SDS011;41837;55.700;37.984;2023-02-27T05:11:39;12.85;;;6.50;;
55931;SDS011;41837;55.700;37.984;2023-02-27T05:17:25;12.75;;;6.63;;
55931;SDS011;41837;55.700;37.984;2023-02-27T05:20:17;11.45;;;6.45;;
55931;SDS011;41837;55.700;37.984;2023-02-27T05:22:57;12.27;;;6.85;;
55931;SDS011;41837;55.700;37.984;2023-02-27T05:27:58;12.70;;;6.57;;
55931;SDS011;41837;55.700;37.984;2023-02-27T05:34:03;15.63;;;7.32;;
55931;SDS011;41837;55.700;37.984;2023-02-27T05:39:39;12.40;;;6.90;;
55931;SDS011;41837;55.700;37.984;2023-02-27T05:42:18;11.93;;;7.18;;
55931;SDS011;41837;55.700;37.984;2023-02-27T05:44:54;12.85;;;6.30;;
55931;SDS011;41837;55.700;37.984;2023-02-27T05:47:27;13.95;;;7.38;;
55931;SDS011;41837;55.700;37.984;2023-02-27T05:50:00;14.02;;;6.63;;
55931;SDS011;41837;55.700;37.984;2023-02-27T05:52:34;12.60;;;7.32;;
55931;SDS011;41837;55.700;37.984;2023-02-27T05:55:04;11.32;;;6.95;;
55931;SDS011;41837;55.700;37.984;2023-02-27T06:00:19;12.77;;;7.75;;
55931;SDS011;41837;55.700;37.984;2023-02-27T06:02:46;13.90;;;7.22;;
55931;SDS011;41837;55.700;37.984;2023-02-27T06:05:13;14.52;;;8.15;;
55931;SDS011;41837;55.700;37.984;2023-02-27T06:07:40;14.32;;;7.75;;
55931;SDS011;41837;55.700;37.984;2023-02-27T06:10:07;14.48;;;7.68;;
55931;SDS011;41837;55.700;37.984;2023-02-27T06:12:38;16.17;;;8.20;;
55931;SDS011;41837;55.700;37.984;2023-02-27T06:15:04;13.35;;;7.20;;
55931;SDS011;41837;55.700;37.984;2023-02-27T06:17:30;14.07;;;7.28;;
55931;SDS011;41837;55.700;37.984;2023-02-27T06:19:57;14.35;;;7.78;;
55931;SDS011;41837;55.700;37.984;2023-02-27T06:22:23;17.08;;;7.85;;
55931;SDS011;41837;55.700;37.984;2023-02-27T06:24:49;12.15;;;7.45;;
55931;SDS011;41837;55.700;37.984;2023-02-27T06:27:15;22.33;;;8.25;;
55931;SDS011;41837;55.700;37.984;2023-02-27T06:29:41;16.75;;;8.40;;
55931;SDS011;41837;55.700;37.984;2023-02-27T06:32:08;14.82;;;7.70;;
55931;SDS011;41837;55.700;37.984;2023-02-27T06:34:34;17.90;;;6.97;;
55931;SDS011;41837;55.700;37.984;2023-02-27T06:37:00;11.90;;;7.28;;
55931;SDS011;41837;55.700;37.984;2023-02-27T06:39:26;13.27;;;7.10;;
55931;SDS011;41837;55.700;37.984;2023-02-27T06:41:53;14.27;;;7.53;;
55931;SDS011;41837;55.700;37.984;2023-02-27T06:44:19;13.90;;;7.28;;
55931;SDS011;41837;55.700;37.984;2023-02-27T06:46:45;17.15;;;7.50;;
55931;SDS011;41837;55.700;37.984;2023-02-27T06:49:11;13.38;;;7.38;;
55931;SDS011;41837;55.700;37.984;2023-02-27T06:51:38;14.93;;;7.85;;
55931;SDS011;41837;55.700;37.984;2023-02-27T06:54:04;11.70;;;6.93;;
55931;SDS011;41837;55.700;37.984;2023-02-27T06:56:30;13.73;;;7.75;;
55931;SDS011;41837;55.700;37.984;2023-02-27T06:58:57;14.32;;;7.88;;
55931;SDS011;41837;55.700;37.984;2023-02-27T07:01:22;14.00;;;6.75;;
55931;SDS011;41837;55.700;37.984;2023-02-27T07:03:50;12.25;;;6.70;;
55931;SDS011;41837;55.700;37.984;2023-02-27T07:06:17;14.35;;;7.28;;
55931;SDS011;41837;55.700;37.984;2023-02-27T07:08:43;12.30;;;7.35;;
55931;SDS011;41837;55.700;37.984;2023-02-27T07:11:10;12.55;;;7.22;;
55931;SDS011;41837;55.700;37.984;2023-02-27T07:13:36;11.10;;;6.25;;
55931;SDS011;41837;55.700;37.984;2023-02-27T07:16:02;12.73;;;7.35;;
55931;SDS011;41837;55.700;37.984;2023-02-27T07:18:29;12.52;;;6.60;;
55931;SDS011;41837;55.700;37.984;2023-02-27T07:20:55;11.15;;;5.70;;
55931;SDS011;41837;55.700;37.984;2023-02-27T07:23:22;13.85;;;6.68;;
55931;SDS011;41837;55.700;37.984;2023-02-27T07:25:48;11.75;;;6.28;;
55931;SDS011;41837;55.700;37.984;2023-02-27T07:28:15;11.57;;;6.05;;
55931;SDS011;41837;55.700;37.984;2023-02-27T07:30:42;15.00;;;6.97;;
55931;SDS011;41837;55.700;37.984;2023-02-27T07:33:08;14.05;;;6.18;;
55931;SDS011;41837;55.700;37.984;2023-02-27T07:35:34;11.60;;;6.68;;
55931;SDS011;41837;55.700;37.984;2023-02-27T07:38:00;10.40;;;5.78;;
55931;SDS011;41837;55.700;37.984;2023-02-27T07:40:26;10.50;;;5.93;;
55931;SDS011;41837;55.700;37.984;2023-02-27T07:42:52;14.60;;;7.05;;
55931;SDS011;41837;55.700;37.984;2023-02-27T07:45:19;9.30;;;5.57;;
55931;SDS011;41837;55.700;37.984;2023-02-27T07:47:45;11.98;;;6.75;;
55931;SDS011;41837;55.700;37.984;2023-02-27T07:50:11;11.23;;;6.18;;
55931;SDS011;41837;55.700;37.984;2023-02-27T07:52:39;10.80;;;6.05;;
55931;SDS011;41837;55.700;37.984;2023-02-27T07:55:06;13.20;;;6.50;;
55931;SDS011;41837;55.700;37.984;2023-02-27T07:57:33;12.32;;;5.78;;
55931;SDS011;41837;55.700;37.984;2023-02-27T07:59:59;9.27;;;5.45;;
55931;SDS011;41837;55.700;37.984;2023-02-27T08:02:25;9.95;;;5.47;;
55931;SDS011;41837;55.700;37.984;2023-02-27T08:04:51;9.85;;;5.93;;
55931;SDS011;41837;55.700;37.984;2023-02-27T08:07:18;11.00;;;6.05;;
55931;SDS011;41837;55.700;37.984;2023-02-27T08:09:44;12.45;;;6.20;;
55931;SDS011;41837;55.700;37.984;2023-02-27T08:12:10;11.57;;;6.90;;
55931;SDS011;41837;55.700;37.984;2023-02-27T08:14:36;11.55;;;5.97;;
55931;SDS011;41837;55.700;37.984;2023-02-27T08:17:03;13.07;;;6.80;;
55931;SDS011;41837;55.700;37.984;2023-02-27T08:19:29;14.88;;;6.80;;
55931;SDS011;41837;55.700;37.984;2023-02-27T08:21:55;14.80;;;6.80;;
55931;SDS011;41837;55.700;37.984;2023-02-27T08:24:21;17.75;;;7.13;;
55931;SDS011;41837;55.700;37.984;2023-02-27T08:26:47;14.70;;;6.72;;
55931;SDS011;41837;55.700;37.984;2023-02-27T08:29:17;11.38;;;6.65;;
55931;SDS011;41837;55.700;37.984;2023-02-27T08:31:44;14.95;;;7.28;;
55931;SDS011;41837;55.700;37.984;2023-02-27T08:34:11;15.52;;;7.88;;
55931;SDS011;41837;55.700;37.984;2023-02-27T08:36:38;21.48;;;9.85;;
55931;SDS011;41837;55.700;37.984;2023-02-27T08:39:05;21.30;;;10.95;;
55931;SDS011;41837;55.700;37.984;2023-02-27T08:41:32;22.65;;;10.15;;
55931;SDS011;41837;55.700;37.984;2023-02-27T08:43:58;20.15;;;10.05;;
55931;SDS011;41837;55.700;37.984;2023-02-27T08:46:25;16.25;;;8.98;;
55931;SDS011;41837;55.700;37.984;2023-02-27T08:48:51;16.65;;;8.77;;
55931;SDS011;41837;55.700;37.984;2023-02-27T08:51:17;13.65;;;8.23;;
55931;SDS011;41837;55.700;37.984;2023-02-27T08:53:43;15.77;;;6.65;;
55931;SDS011;41837;55.700;37.984;2023-02-27T08:56:10;12.90;;;6.82;;
55931;SDS011;41837;55.700;37.984;2023-02-27T08:58:36;11.73;;;6.00;;
55931;SDS011;41837;55.700;37.984;2023-02-27T09:01:02;11.80;;;6.60;;
55931;SDS011;41837;55.700;37.984;2023-02-27T09:03:28;12.30;;;6.93;;
55931;SDS011;41837;55.700;37.984;2023-02-27T09:05:55;11.52;;;6.20;;
55931;SDS011;41837;55.700;37.984;2023-02-27T09:08:23;11.50;;;5.97;;
55931;SDS011;41837;55.700;37.984;2023-02-27T09:10:49;9.43;;;5.85;;
55931;SDS011;41837;55.700;37.984;2023-02-27T09:13:16;9.52;;;5.90;;
55931;SDS011;41837;55.700;37.984;2023-02-27T09:15:42;9.43;;;5.60;;
55931;SDS011;41837;55.700;37.984;2023-02-27T09:18:08;10.73;;;5.95;;
55931;SDS011;41837;55.700;37.984;2023-02-27T09:20:34;10.35;;;5.75;;
55931;SDS011;41837;55.700;37.984;2023-02-27T09:23:01;11.15;;;5.68;;
55931;SDS011;41837;55.700;37.984;2023-02-27T09:25:28;10.45;;;6.20;;
55931;SDS011;41837;55.700;37.984;2023-02-27T09:27:55;13.40;;;6.32;;
55931;SDS011;41837;55.700;37.984;2023-02-27T09:30:21;12.18;;;6.22;;
55931;SDS011;41837;55.700;37.984;2023-02-27T09:32:48;12.00;;;6.25;;
55931;SDS011;41837;55.700;37.984;2023-02-27T09:35:15;13.57;;;6.15;;
55931;SDS011;41837;55.700;37.984;2023-02-27T09:37:42;11.00;;;6.13;;
55931;SDS011;41837;55.700;37.984;2023-02-27T09:40:14;10.27;;;6.00;;
55931;SDS011;41837;55.700;37.984;2023-02-27T09:42:47;11.20;;;6.00;;
55931;SDS011;41837;55.700;37.984;2023-02-27T09:45:23;13.90;;;6.10;;
55931;SDS011;41837;55.700;37.984;2023-02-27T09:50:46;10.07;;;5.57;;
55931;SDS011;41837;55.700;37.984;2023-02-27T09:55:51;10.07;;;5.80;;
55931;SDS011;41837;55.700;37.984;2023-02-27T09:59:04;11.60;;;5.97;;
55931;SDS011;41837;55.700;37.984;2023-02-27T10:01:36;14.63;;;7.13;;
55931;SDS011;41837;55.700;37.984;2023-02-27T10:04:23;10.00;;;5.07;;
55931;SDS011;41837;55.700;37.984;2023-02-27T10:07:14;9.27;;;5.20;;
55931;SDS011;41837;55.700;37.984;2023-02-27T10:09:53;9.68;;;5.30;;
55931;SDS011;41837;55.700;37.984;2023-02-27T10:17:40;10.10;;;4.25;;
55931;SDS011;41837;55.700;37.984;2023-02-27T10:20:16;8.57;;;4.85;;
55931;SDS011;41837;55.700;37.984;2023-02-27T10:22:49;11.48;;;5.60;;
55931;SDS011;41837;55.700;37.984;2023-02-27T10:25:17;10.15;;;5.53;;
55931;SDS011;41837;55.700;37.984;2023-02-27T10:27:47;9.32;;;4.47;;
55931;SDS011;41837;55.700;37.984;2023-02-27T10:32:49;13.32;;;5.50;;
55931;SDS011;41837;55.700;37.984;2023-02-27T10:35:21;10.27;;;5.57;;
55931;SDS011;41837;55.700;37.984;2023-02-27T10:37:57;9.75;;;5.50;;
55931;SDS011;41837;55.700;37.984;2023-02-27T10:40:25;10.68;;;5.55;;
55931;SDS011;41837;55.700;37.984;2023-02-27T10:42:54;9.25;;;4.38;;
55931;SDS011;41837;55.700;37.984;2023-02-27T10:45:23;7.30;;;3.85;;
55931;SDS011;41837;55.700;37.984;2023-02-27T10:47:52;9.23;;;4.60;;
55931;SDS011;41837;55.700;37.984;2023-02-27T10:50:31;7.85;;;4.28;;
55931;SDS011;41837;55.700;37.984;2023-02-27T10:53:00;8.35;;;4.80;;
55931;SDS011;41837;55.700;37.984;2023-02-27T10:55:29;7.00;;;4.25;;
55931;SDS011;41837;55.700;37.984;2023-02-27T10:57:57;8.02;;;4.55;;
55931;SDS011;41837;55.700;37.984;2023-02-27T11:00:40;8.80;;;4.68;;
55931;SDS011;41837;55.700;37.984;2023-02-27T11:03:19;9.43;;;4.57;;
55931;SDS011;41837;55.700;37.984;2023-02-27T11:05:53;9.45;;;4.95;;
55931;SDS011;41837;55.700;37.984;2023-02-27T11:08:39;8.75;;;4.65;;
55931;SDS011;41837;55.700;37.984;2023-02-27T11:11:07;19.98;;;5.40;;
55931;SDS011;41837;55.700;37.984;2023-02-27T11:13:36;10.93;;;4.40;;
55931;SDS011;41837;55.700;37.984;2023-02-27T11:16:13;10.57;;;4.80;;
55931;SDS011;41837;55.700;37.984;2023-02-27T11:18:48;6.93;;;4.00;;
55931;SDS011;41837;55.700;37.984;2023-02-27T11:21:17;8.73;;;4.03;;
55931;SDS011;41837;55.700;37.984;2023-02-27T11:23:48;8.18;;;4.80;;
55931;SDS011;41837;55.700;37.984;2023-02-27T11:26:25;8.13;;;4.57;;
55931;SDS011;41837;55.700;37.984;2023-02-27T11:29:15;7.28;;;4.40;;
55931;SDS011;41837;55.700;37.984;2023-02-27T11:34:40;8.15;;;4.85;;
55931;SDS011;41837;55.700;37.984;2023-02-27T11:37:20;7.93;;;4.32;;
55931;SDS011;41837;55.700;37.984;2023-02-27T11:42:46;9.05;;;4.82;;
55931;SDS011;41837;55.700;37.984;2023-02-27T11:45:28;8.77;;;4.72;;
55931;SDS011;41837;55.700;37.984;2023-02-27T11:48:07;10.27;;;4.90;;
55931;SDS011;41837;55.700;37.984;2023-02-27T11:56:20;10.70;;;5.15;;
55931;SDS011;41837;55.700;37.984;2023-02-27T11:59:02;9.60;;;4.78;;
55931;SDS011;41837;55.700;37.984;2023-02-27T12:07:00;11.60;;;5.45;;
55931;SDS011;41837;55.700;37.984;2023-02-27T12:09:37;10.60;;;5.68;;
55931;SDS011;41837;55.700;37.984;2023-02-27T12:12:13;9.57;;;5.45;;
55931;SDS011;41837;55.700;37.984;2023-02-27T12:14:54;9.70;;;5.50;;
55931;SDS011;41837;55.700;37.984;2023-02-27T12:17:31;9.05;;;4.95;;
55931;SDS011;41837;55.700;37.984;2023-02-27T12:22:43;9.27;;;5.13;;
55931;SDS011;41837;55.700;37.984;2023-02-27T12:25:15;9.73;;;5.35;;
55931;SDS011;41837;55.700;37.984;2023-02-27T12:27:50;10.00;;;5.68;;
55931;SDS011;41837;55.700;37.984;2023-02-27T12:30:33;10.88;;;5.90;;
55931;SDS011;41837;55.700;37.984;2023-02-27T12:33:12;13.07;;;5.55;;
55931;SDS011;41837;55.700;37.984;2023-02-27T12:35:58;8.48;;;5.38;;
55931;SDS011;41837;55.700;37.984;2023-02-27T12:38:27;12.85;;;5.45;;
55931;SDS011;41837;55.700;37.984;2023-02-27T12:49:01;7.38;;;4.25;;
55931;SDS011;41837;55.700;37.984;2023-02-27T12:52:11;6.65;;;3.47;;
55931;SDS011;41837;55.700;37.984;2023-02-27T13:00:17;13.73;;;4.28;;
55931;SDS011;41837;55.700;37.984;2023-02-27T13:06:01;7.97;;;4.28;;
55931;SDS011;41837;55.700;37.984;2023-02-27T13:13:59;7.35;;;4.28;;
55931;SDS011;41837;55.700;37.984;2023-02-27T13:16:39;8.27;;;4.90;;
55931;SDS011;41837;55.700;37.984;2023-02-27T13:19:25;10.57;;;4.75;;
55931;SDS011;41837;55.700;37.984;2023-02-27T13:22:10;6.57;;;4.07;;
55931;SDS011;41837;55.700;37.984;2023-02-27T13:24:58;7.20;;;4.25;;
55931;SDS011;41837;55.700;37.984;2023-02-27T13:27:35;11.10;;;4.05;;
55931;SDS011;41837;55.700;37.984;2023-02-27T13:30:10;8.65;;;4.35;;
55931;SDS011;41837;55.700;37.984;2023-02-27T13:43:51;11.98;;;5.43;;
55931;SDS011;41837;55.700;37.984;2023-02-27T13:46:22;14.18;;;5.38;;
55931;SDS011;41837;55.700;37.984;2023-02-27T13:56:40;9.65;;;5.05;;
55931;SDS011;41837;55.700;37.984;2023-02-27T13:59:10;12.57;;;5.28;;
55931;SDS011;41837;55.700;37.984;2023-02-27T14:02:00;9.18;;;4.88;;
55931;SDS011;41837;55.700;37.984;2023-02-27T14:07:01;10.82;;;5.70;;
55931;SDS011;41837;55.700;37.984;2023-02-27T14:09:36;13.60;;;5.20;;
55931;SDS011;41837;55.700;37.984;2023-02-27T14:12:06;11.43;;;5.55;;
55931;SDS011;41837;55.700;37.984;2023-02-27T14:15:05;10.38;;;4.90;;
55931;SDS011;41837;55.700;37.984;2023-02-27T14:20:46;10.63;;;4.95;;
55931;SDS011;41837;55.700;37.984;2023-02-27T14:23:17;11.48;;;5.53;;
55931;SDS011;41837;55.700;37.984;2023-02-27T14:28:35;11.57;;;5.90;;
55931;SDS011;41837;55.700;37.984;2023-02-27T14:31:22;12.20;;;6.00;;
55931;SDS011;41837;55.700;37.984;2023-02-27T14:33:57;12.10;;;5.95;;
55931;SDS011;41837;55.700;37.984;2023-02-27T14:36:31;11.00;;;5.93;;
55931;SDS011;41837;55.700;37.984;2023-02-27T14:39:05;11.38;;;5.95;;
55931;SDS011;41837;55.700;37.984;2023-02-27T14:41:43;11.15;;;6.15;;
55931;SDS011;41837;55.700;37.984;2023-02-27T14:44:39;12.10;;;6.20;;
55931;SDS011;41837;55.700;37.984;2023-02-27T14:47:17;11.15;;;6.35;;
55931;SDS011;41837;55.700;37.984;2023-02-27T14:49:45;11.88;;;5.88;;
55931;SDS011;41837;55.700;37.984;2023-02-27T14:52:19;11.57;;;5.88;;
55931;SDS011;41837;55.700;37.984;2023-02-27T15:00:47;15.70;;;8.32;;
55931;SDS011;41837;55.700;37.984;2023-02-27T15:03:39;16.63;;;7.82;;
55931;SDS011;41837;55.700;37.984;2023-02-27T15:06:14;15.52;;;7.63;;
55931;SDS011;41837;55.700;37.984;2023-02-27T15:08:48;21.58;;;8.38;;
55931;SDS011;41837;55.700;37.984;2023-02-27T15:11:19;15.10;;;7.82;;
55931;SDS011;41837;55.700;37.984;2023-02-27T15:13:47;16.40;;;7.30;;
55931;SDS011;41837;55.700;37.984;2023-02-27T15:16:30;14.05;;;7.72;;
55931;SDS011;41837;55.700;37.984;2023-02-27T15:21:49;14.00;;;7.47;;
55931;SDS011;41837;55.700;37.984;2023-02-27T15:24:27;12.88;;;7.57;;
55931;SDS011;41837;55.700;37.984;2023-02-27T15:26:55;12.73;;;7.35;;
55931;SDS011;41837;55.700;37.984;2023-02-27T15:29:30;13.68;;;7.68;;
55931;SDS011;41837;55.700;37.984;2023-02-27T15:32:01;16.33;;;8.07;;
55931;SDS011;41837;55.700;37.984;2023-02-27T15:34:28;15.13;;;7.90;;
55931;SDS011;41837;55.700;37.984;2023-02-27T15:36:55;13.15;;;6.85;;
55931;SDS011;41837;55.700;37.984;2023-02-27T15:39:24;13.25;;;6.85;;
55931;SDS011;41837;55.700;37.984;2023-02-27T15:42:00;12.32;;;6.80;;
55931;SDS011;41837;55.700;37.984;2023-02-27T15:44:30;11.77;;;6.60;;
55931;SDS011;41837;55.700;37.984;2023-02-27T15:47:02;11.90;;;7.07;;
55931;SDS011;41837;55.700;37.984;2023-02-27T15:55:40;14.40;;;7.57;;
55931;SDS011;41837;55.700;37.984;2023-02-27T15:58:14;14.55;;;7.50;;
55931;SDS011;41837;55.700;37.984;2023-02-27T16:00:56;15.70;;;7.53;;
55931;SDS011;41837;55.700;37.984;2023-02-27T16:03:30;16.70;;;8.52;;
55931;SDS011;41837;55.700;37.984;2023-02-27T16:06:00;17.20;;;7.72;;
55931;SDS011;41837;55.700;37.984;2023-02-27T16:08:28;15.93;;;8.38;;
55931;SDS011;41837;55.700;37.984;2023-02-27T16:10:56;17.38;;;7.63;;
55931;SDS011;41837;55.700;37.984;2023-02-27T16:13:33;18.17;;;7.05;;
55931;SDS011;41837;55.700;37.984;2023-02-27T16:16:04;15.00;;;6.82;;
55931;SDS011;41837;55.700;37.984;2023-02-27T16:18:47;18.40;;;8.02;;
55931;SDS011;41837;55.700;37.984;2023-02-27T16:21:19;14.80;;;7.38;;
55931;SDS011;41837;55.700;37.984;2023-02-27T16:23:47;13.98;;;7.10;;
55931;SDS011;41837;55.700;37.984;2023-02-27T16:28:52;14.65;;;7.63;;
55931;SDS011;41837;55.700;37.984;2023-02-27T16:34:13;11.38;;;5.30;;
55931;SDS011;41837;55.700;37.984;2023-02-27T16:36:54;9.80;;;5.05;;
55931;SDS011;41837;55.700;37.984;2023-02-27T16:39:23;8.93;;;5.18;;
55931;SDS011;41837;55.700;37.984;2023-02-27T16:41:51;12.25;;;5.63;;
55931;SDS011;41837;55.700;37.984;2023-02-27T16:44:17;9.60;;;5.20;;
55931;SDS011;41837;55.700;37.984;2023-02-27T16:46:43;10.63;;;4.82;;
55931;SDS011;41837;55.700;37.984;2023-02-27T16:49:17;8.70;;;5.22;;
55931;SDS011;41837;55.700;37.984;2023-02-27T16:51:45;10.00;;;5.07;;
55931;SDS011;41837;55.700;37.984;2023-02-27T16:54:12;12.00;;;6.00;;
55931;SDS011;41837;55.700;37.984;2023-02-27T16:56:40;12.23;;;6.15;;
55931;SDS011;41837;55.700;37.984;2023-02-27T16:59:06;14.20;;;7.50;;
55931;SDS011;41837;55.700;37.984;2023-02-27T17:01:32;13.98;;;7.00;;
55931;SDS011;41837;55.700;37.984;2023-02-27T17:03:58;12.02;;;6.57;;
55931;SDS011;41837;55.700;37.984;2023-02-27T17:06:24;17.00;;;8.10;;
55931;SDS011;41837;55.700;37.984;2023-02-27T17:08:50;15.52;;;7.10;;
55931;SDS011;41837;55.700;37.984;2023-02-27T17:11:16;14.70;;;6.60;;
55931;SDS011;41837;55.700;37.984;2023-02-27T17:13:42;16.40;;;8.80;;
55931;SDS011;41837;55.700;37.984;2023-02-27T17:16:08;13.60;;;6.90;;
55931;SDS011;41837;55.700;37.984;2023-02-27T17:18:36;14.02;;;7.82;;
55931;SDS011;41837;55.700;37.984;2023-02-27T17:21:02;15.07;;;7.32;;
55931;SDS011;41837;55.700;37.984;2023-02-27T17:23:29;16.48;;;6.72;;
55931;SDS011;41837;55.700;37.984;2023-02-27T17:25:55;12.23;;;6.35;;
55931;SDS011;41837;55.700;37.984;2023-02-27T17:28:22;10.82;;;5.78;;
55931;SDS011;41837;55.700;37.984;2023-02-27T17:30:48;11.00;;;6.00;;
55931;SDS011;41837;55.700;37.984;2023-02-27T17:33:15;12.88;;;5.25;;
55931;SDS011;41837;55.700;37.984;2023-02-27T17:35:41;8.77;;;5.07;;
55931;SDS011;41837;55.700;37.984;2023-02-27T17:38:07;9.00;;;4.97;;
55931;SDS011;41837;55.700;37.984;2023-02-27T17:40:36;9.68;;;5.53;;
55931;SDS011;41837;55.700;37.984;2023-02-27T17:43:04;9.32;;;5.60;;